Time;durP1;ratioP1;P1;durP2;ratioP2;P2;SDS_P1;SDS_P2;PMS_P1;PMS_P2;Temp;Humidity;BMP_temperature;BMP_pressure;BME280_temperature;BME280_humidity;BME280_pressure;Samples;Min_cycle;Max_cycle;Signal;HPM_P1;HPM_P2
2022/05/07 00:00:45;;;;;;;3.30;3.00;;;;;;;;;;5072054;28;20241;-75
2022/05/07 00:03:15;;;;;;;4.53;3.47;;;;;;;;;;5074292;28;20238;-75
2022/05/07 00:05:43;;;;;;;5.10;2.97;;;;;;;;;;5073694;28;20659;-73
2022/05/07 00:08:11;;;;;;;6.67;2.93;;;;;;;;;;5073442;28;20825;-74
2022/05/07 00:10:41;;;;;;;6.43;3.00;;;;;;;;;;5071665;28;20199;-75
2022/05/07 00:13:09;;;;;;;4.17;3.07;;;;;;;;;;5072014;28;20211;-73
2022/05/07 00:15:37;;;;;;;3.20;2.90;;;;;;;;;;5070201;28;20280;-73
2022/05/07 00:18:06;;;;;;;3.30;3.00;;;;;;;;;;5057562;28;20211;-74
2022/05/07 00:20:36;;;;;;;5.23;2.67;;;;;;;;;;5057585;28;20290;-74
2022/05/07 00:23:04;;;;;;;3.73;2.70;;;;;;;;;;5057124;28;20706;-74
2022/05/07 00:25:32;;;;;;;5.87;3.10;;;;;;;;;;5065848;28;20257;-74
2022/05/07 00:28:01;;;;;;;5.20;3.53;;;;;;;;;;5075529;28;20569;-73
2022/05/07 00:30:29;;;;;;;5.87;2.90;;;;;;;;;;5077291;28;20237;-74
2022/05/07 00:32:56;;;;;;;4.30;2.90;;;;;;;;;;5069186;28;20249;-74
2022/05/07 00:35:25;;;;;;;4.40;3.50;;;;;;;;;;5070006;28;20226;-73
2022/05/07 00:37:54;;;;;;;3.90;3.10;;;;;;;;;;5057317;28;20238;-73
2022/05/07 00:40:22;;;;;;;3.20;2.87;;;;;;;;;;5057339;28;20290;-73
2022/05/07 00:42:50;;;;;;;3.30;3.00;;;;;;;;;;5068721;28;20260;-75
2022/05/07 00:45:18;;;;;;;3.20;2.70;;;;;;;;;;5080717;28;20206;-75
2022/05/07 00:47:46;;;;;;;3.00;2.67;;;;;;;;;;5081658;28;20237;-75
2022/05/07 00:53:01;;;;;;;5.50;3.20;;;;;;;;;;5081168;28;20202;-74
2022/05/07 00:55:30;;;;;;;3.97;3.00;;;;;;;;;;5081325;28;20328;-73
2022/05/07 00:57:58;;;;;;;4.27;2.63;;;;;;;;;;5080849;28;20233;-73
2022/05/07 01:00:26;;;;;;;5.40;3.00;;;;;;;;;;5080662;28;20284;-74
2022/05/07 01:02:54;;;;;;;4.67;2.93;;;;;;;;;;5080676;28;20329;-74
2022/05/07 01:05:22;;;;;;;4.93;3.70;;;;;;;;;;5078897;28;20226;-73
2022/05/07 01:07:50;;;;;;;3.50;3.20;;;;;;;;;;5081026;28;20238;-74
2022/05/07 01:10:20;;;;;;;7.90;3.10;;;;;;;;;;5081219;28;20244;-73
2022/05/07 01:12:48;;;;;;;4.43;3.53;;;;;;;;;;5080783;28;20206;-73
2022/05/07 01:15:16;;;;;;;3.70;2.80;;;;;;;;;;5080207;28;20239;-73
2022/05/07 01:17:44;;;;;;;3.70;2.57;;;;;;;;;;5063374;28;20707;-75
2022/05/07 01:20:13;;;;;;;4.30;3.47;;;;;;;;;;5060630;28;20614;-73
2022/05/07 01:22:44;;;;;;;3.53;3.10;;;;;;;;;;5060801;28;20202;-74
2022/05/07 01:25:12;;;;;;;5.43;3.43;;;;;;;;;;5060736;28;20207;-74
2022/05/07 01:27:40;;;;;;;4.50;3.37;;;;;;;;;;5061101;28;20249;-73
2022/05/07 01:30:08;;;;;;;3.33;3.03;;;;;;;;;;5064557;28;20234;-74
2022/05/07 01:32:36;;;;;;;3.53;3.10;;;;;;;;;;5075053;28;20230;-74
2022/05/07 01:35:04;;;;;;;3.17;2.87;;;;;;;;;;5073062;28;20286;-73
2022/05/07 01:37:32;;;;;;;4.97;3.50;;;;;;;;;;5072874;28;20226;-75
2022/05/07 01:40:02;;;;;;;5.47;3.80;;;;;;;;;;5060507;28;20211;-73
2022/05/07 01:42:30;;;;;;;4.10;3.70;;;;;;;;;;5067021;28;20289;-74
2022/05/07 01:44:58;;;;;;;3.60;3.30;;;;;;;;;;5079059;28;20305;-75
2022/05/07 01:50:11;;;;;;;6.20;4.10;;;;;;;;;;5080018;28;20248;-73
2022/05/07 01:52:39;;;;;;;6.93;3.53;;;;;;;;;;5078892;28;20245;-73
2022/05/07 01:55:09;;;;;;;4.23;3.70;;;;;;;;;;5079980;28;20237;-74
2022/05/07 01:57:37;;;;;;;3.83;3.53;;;;;;;;;;5079149;28;20217;-74
2022/05/07 02:00:05;;;;;;;5.03;3.67;;;;;;;;;;5062134;28;20246;-73
2022/05/07 02:02:33;;;;;;;4.03;3.63;;;;;;;;;;5059760;28;20266;-74
2022/05/07 02:05:02;;;;;;;5.80;3.90;;;;;;;;;;5062648;28;20218;-74
2022/05/07 02:07:30;;;;;;;5.00;3.23;;;;;;;;;;5066261;28;20199;-74
2022/05/07 02:09:58;;;;;;;7.70;4.27;;;;;;;;;;5059996;28;20234;-73
2022/05/07 02:12:28;;;;;;;4.37;3.57;;;;;;;;;;5066878;28;20284;-75
2022/05/07 02:14:56;;;;;;;4.03;3.37;;;;;;;;;;5079831;28;20266;-73
2022/05/07 02:17:24;;;;;;;4.97;3.47;;;;;;;;;;5078286;28;20249;-73
2022/05/07 02:19:52;;;;;;;4.63;3.57;;;;;;;;;;5063054;28;20708;-74
2022/05/07 02:22:20;;;;;;;4.77;3.60;;;;;;;;;;5059891;28;20252;-75
2022/05/07 02:24:48;;;;;;;4.00;3.63;;;;;;;;;;5059401;28;20317;-73
2022/05/07 02:27:16;;;;;;;4.10;3.70;;;;;;;;;;5059545;28;20262;-74
2022/05/07 02:29:46;;;;;;;3.63;3.30;;;;;;;;;;5059406;28;20289;-74
2022/05/07 02:32:14;;;;;;;6.23;3.63;;;;;;;;;;5061649;28;20203;-74
2022/05/07 02:34:42;;;;;;;7.40;4.20;;;;;;;;;;5070370;28;20242;-74
2022/05/07 02:37:10;;;;;;;4.97;3.47;;;;;;;;;;5059315;28;20262;-74
2022/05/07 02:39:38;;;;;;;5.43;4.00;;;;;;;;;;5058892;28;20633;-73
2022/05/07 02:44:53;;;;;;;3.70;3.40;;;;;;;;;;5059380;28;20237;-74
2022/05/07 02:47:21;;;;;;;7.13;3.90;;;;;;;;;;5065720;28;20693;-73
2022/05/07 02:49:50;;;;;;;5.17;4.10;;;;;;;;;;5078755;28;20616;-74
2022/05/07 02:52:18;;;;;;;6.70;4.20;;;;;;;;;;5078704;28;20245;-74
2022/05/07 02:54:46;;;;;;;5.57;3.77;;;;;;;;;;5078761;28;20233;-75
2022/05/07 02:57:14;;;;;;;6.17;4.20;;;;;;;;;;5078712;28;20269;-75
2022/05/07 02:59:42;;;;;;;6.10;3.77;;;;;;;;;;5078557;28;20289;-75
2022/05/07 03:02:12;;;;;;;4.13;3.73;;;;;;;;;;5070527;28;20245;-75
2022/05/07 03:04:40;;;;;;;7.47;4.00;;;;;;;;;;5058045;28;20222;-74
2022/05/07 03:07:08;;;;;;;5.83;3.77;;;;;;;;;;5058788;28;20226;-73
2022/05/07 03:09:36;;;;;;;6.63;3.70;;;;;;;;;;5058556;28;20658;-73
2022/05/07 03:12:05;;;;;;;4.10;3.70;;;;;;;;;;5059068;28;20253;-73
2022/05/07 03:14:33;;;;;;;10.80;4.20;;;;;;;;;;5058314;28;20608;-73
2022/05/07 03:17:01;;;;;;;3.80;3.37;;;;;;;;;;5065701;28;20249;-74
2022/05/07 03:19:30;;;;;;;5.97;3.80;;;;;;;;;;5071876;28;20237;-74
2022/05/07 03:21:58;;;;;;;6.33;4.07;;;;;;;;;;5058369;28;20709;-73
2022/05/07 03:24:27;;;;;;;3.67;3.37;;;;;;;;;;5058138;28;20670;-73
2022/05/07 03:26:55;;;;;;;4.80;3.63;;;;;;;;;;5058547;28;20226;-73
2022/05/07 03:29:23;;;;;;;5.00;4.27;;;;;;;;;;5057804;28;20238;-74
2022/05/07 03:31:51;;;;;;;5.03;4.30;;;;;;;;;;5065823;28;20256;-75
2022/05/07 03:34:19;;;;;;;5.17;4.03;;;;;;;;;;5065334;28;20281;-73
2022/05/07 03:36:49;;;;;;;4.33;3.43;;;;;;;;;;5064570;28;20299;-74
2022/05/07 03:39:17;;;;;;;4.67;3.63;;;;;;;;;;5068328;28;20226;-73
2022/05/07 03:41:45;;;;;;;5.00;3.83;;;;;;;;;;5068857;28;20229;-75
2022/05/07 03:44:13;;;;;;;5.80;3.53;;;;;;;;;;5065037;28;20215;-73
2022/05/07 03:46:41;;;;;;;5.83;3.67;;;;;;;;;;5069330;28;20258;-75
2022/05/07 03:49:09;;;;;;;4.43;3.90;;;;;;;;;;5068512;28;20596;-75
2022/05/07 03:54:20;;;;;;;7.53;3.70;;;;;;;;;;5066974;28;20559;-74
2022/05/07 03:56:48;;;;;;;5.23;4.23;;;;;;;;;;5069708;28;20225;-72
2022/05/07 03:59:16;;;;;;;5.67;3.53;;;;;;;;;;5068669;28;20752;-79
2022/05/07 04:01:44;;;;;;;5.03;3.77;;;;;;;;;;5067525;28;20264;-76
2022/05/07 04:04:12;;;;;;;4.47;4.07;;;;;;;;;;5066740;28;20659;-73
2022/05/07 04:06:40;;;;;;;6.03;3.67;;;;;;;;;;5066414;28;20214;-75
2022/05/07 04:09:08;;;;;;;5.70;3.73;;;;;;;;;;5067519;28;20226;-75
2022/05/07 04:11:38;;;;;;;7.37;3.70;;;;;;;;;;5068341;28;20203;-77
2022/05/07 04:14:06;;;;;;;10.17;5.07;;;;;;;;;;5068446;28;20206;-73
2022/05/07 04:16:34;;;;;;;4.63;3.67;;;;;;;;;;5065109;28;20273;-73
2022/05/07 04:19:09;;;;;;;4.10;3.70;;;;;;;;;;5067022;28;20198;-75
2022/05/07 04:21:38;;;;;;;4.80;3.47;;;;;;;;;;5070212;28;20237;-72
2022/05/07 04:24:07;;;;;;;4.10;3.77;;;;;;;;;;5069941;28;20266;-73
2022/05/07 04:26:35;;;;;;;3.80;3.50;;;;;;;;;;5068371;28;20221;-72
2022/05/07 04:29:04;;;;;;;4.33;3.70;;;;;;;;;;5068466;28;20202;-75
2022/05/07 04:31:32;;;;;;;3.57;3.27;;;;;;;;;;5069695;28;20704;-75
2022/05/07 04:34:00;;;;;;;5.30;3.63;;;;;;;;;;5073585;28;20210;-72
2022/05/07 04:36:28;;;;;;;5.90;3.67;;;;;;;;;;5074253;28;20253;-74
2022/05/07 04:38:56;;;;;;;5.53;3.30;;;;;;;;;;5077238;28;20234;-73
2022/05/07 04:41:25;;;;;;;4.87;3.33;;;;;;;;;;5077438;28;20244;-72
2022/05/07 04:43:53;;;;;;;4.43;3.03;;;;;;;;;;5077235;28;20245;-75
2022/05/07 04:46:23;;;;;;;4.50;3.67;;;;;;;;;;5068897;28;20265;-73
2022/05/07 04:48:51;;;;;;;3.50;3.20;;;;;;;;;;5070480;28;20202;-74
2022/05/07 04:51:19;;;;;;;3.80;3.20;;;;;;;;;;5070630;28;20597;-74
2022/05/07 04:54:07;;;;;;;5.60;3.57;;;;;;;;;;5067911;28;20251;-73
2022/05/07 04:56:35;;;;;;;5.13;3.50;;;;;;;;;;5068243;28;20751;-76
2022/05/07 04:59:03;;;;;;;3.77;3.07;;;;;;;;;;5070022;28;20226;-74
2022/05/07 05:01:33;;;;;;;3.57;2.90;;;;;;;;;;5065133;28;20230;-75
2022/05/07 05:04:01;;;;;;;3.80;3.00;;;;;;;;;;5066802;28;20229;-74
2022/05/07 05:06:29;;;;;;;3.70;3.07;;;;;;;;;;5067852;28;20592;-75
2022/05/07 05:08:57;;;;;;;3.77;3.23;;;;;;;;;;5070240;28;20199;-76
2022/05/07 05:11:26;;;;;;;3.17;2.90;;;;;;;;;;5068889;28;20206;-75
2022/05/07 05:13:54;;;;;;;6.87;3.10;;;;;;;;;;5067086;28;20233;-75
2022/05/07 05:16:23;;;;;;;4.20;3.07;;;;;;;;;;5065591;28;20265;-74
2022/05/07 05:18:53;;;;;;;5.07;3.17;;;;;;;;;;5066074;28;20190;-70
2022/05/07 05:21:21;;;;;;;4.90;3.13;;;;;;;;;;5065818;28;20263;-69
2022/05/07 05:23:49;;;;;;;3.40;3.07;;;;;;;;;;5068913;28;20650;-69
2022/05/07 05:26:17;;;;;;;4.47;3.20;;;;;;;;;;5070115;28;20248;-69
2022/05/07 05:28:47;;;;;;;12.53;4.07;;;;;;;;;;5070196;28;20194;-72
2022/05/07 05:31:15;;;;;;;4.07;3.20;;;;;;;;;;5069041;28;20580;-74
2022/05/07 05:33:43;;;;;;;3.57;2.73;;;;;;;;;;5069035;28;20214;-76
2022/05/07 05:36:13;;;;;;;4.30;3.20;;;;;;;;;;5060504;28;20250;-77
2022/05/07 05:38:41;;;;;;;4.37;2.97;;;;;;;;;;5076111;28;20207;-77
2022/05/07 05:41:09;;;;;;;2.70;2.50;;;;;;;;;;5074947;28;20713;-76
2022/05/07 05:43:38;;;;;;;4.90;3.10;;;;;;;;;;5066194;28;20286;-76
2022/05/07 05:46:05;;;;;;;9.13;3.50;;;;;;;;;;5060851;28;20257;-77
2022/05/07 05:48:34;;;;;;;2.90;2.70;;;;;;;;;;5070439;28;20216;-78
2022/05/07 05:51:02;;;;;;;2.87;2.50;;;;;;;;;;5080915;28;20206;-76
2022/05/07 05:53:32;;;;;;;4.27;3.07;;;;;;;;;;5074980;28;20261;-71
2022/05/07 05:56:01;;;;;;;5.40;3.20;;;;;;;;;;5070529;28;20237;-69
2022/05/07 05:58:33;;;;;;;6.60;3.50;;;;;;;;;;5069613;28;20195;-69
2022/05/07 06:01:01;;;;;;;7.57;3.10;;;;;;;;;;5070680;28;20201;-72
2022/05/07 06:03:29;;;;;;;3.40;3.10;;;;;;;;;;5071218;28;20298;-70
2022/05/07 06:05:57;;;;;;;4.20;2.70;;;;;;;;;;5071120;28;20272;-70
2022/05/07 06:08:25;;;;;;;3.40;3.10;;;;;;;;;;5070556;28;20202;-71
2022/05/07 06:10:57;;;;;;;4.97;3.40;;;;;;;;;;5068958;28;20199;-70
2022/05/07 06:13:25;;;;;;;3.33;2.80;;;;;;;;;;5070397;28;20194;-72
2022/05/07 06:15:54;;;;;;;2.70;2.50;;;;;;;;;;5071031;28;20254;-72
2022/05/07 06:18:25;;;;;;;6.23;3.53;;;;;;;;;;5068873;28;20677;-71
2022/05/07 06:20:53;;;;;;;7.80;3.30;;;;;;;;;;5071071;28;20222;-70
2022/05/07 06:23:21;;;;;;;2.97;2.73;;;;;;;;;;5073308;28;20670;-69
2022/05/07 06:28:36;;;;;;;7.53;3.10;;;;;;;;;;5072666;28;20194;-72
2022/05/07 06:31:04;;;;;;;4.70;3.07;;;;;;;;;;5069796;28;20202;-71
2022/05/07 06:33:32;;;;;;;4.30;3.43;;;;;;;;;;5079214;28;20650;-72
2022/05/07 06:36:00;;;;;;;3.73;3.00;;;;;;;;;;5072145;28;20261;-70
2022/05/07 06:38:28;;;;;;;4.40;3.40;;;;;;;;;;5067710;28;20203;-71
2022/05/07 06:41:01;;;;;;;3.17;2.80;;;;;;;;;;5058676;28;20666;-68
2022/05/07 06:43:30;;;;;;;5.30;3.40;;;;;;;;;;5067260;28;20249;-70
2022/05/07 06:46:00;;;;;;;5.13;3.13;;;;;;;;;;5069600;28;20254;-70
2022/05/07 06:48:28;;;;;;;6.13;3.23;;;;;;;;;;5073028;28;20229;-71
2022/05/07 06:50:56;;;;;;;8.63;3.27;;;;;;;;;;5078940;28;20202;-70
2022/05/07 06:53:24;;;;;;;4.40;3.67;;;;;;;;;;5078378;28;20233;-67
2022/05/07 06:55:59;;;;;;;6.80;3.17;;;;;;;;;;5077530;28;20585;-67
2022/05/07 06:58:27;;;;;;;3.17;2.87;;;;;;;;;;5078614;28;20548;-68
2022/05/07 07:01:01;;;;;;;3.90;2.90;;;;;;;;;;5072426;28;20215;-71
2022/05/07 07:03:30;;;;;;;3.27;2.97;;;;;;;;;;5069771;28;20237;-71
2022/05/07 07:05:59;;;;;;;4.07;3.70;;;;;;;;;;5068832;28;20218;-70
2022/05/07 07:08:29;;;;;;;4.87;3.23;;;;;;;;;;5069911;28;20199;-69
2022/05/07 07:11:05;;;;;;;4.07;3.67;;;;;;;;;;5069422;28;20198;-70
2022/05/07 07:13:33;;;;;;;3.27;2.97;;;;;;;;;;5067621;28;20286;-69
2022/05/07 07:16:02;;;;;;;6.07;3.50;;;;;;;;;;5068932;28;20214;-70
2022/05/07 07:18:31;;;;;;;5.40;3.70;;;;;;;;;;5072050;28;20224;-69
2022/05/07 07:20:59;;;;;;;5.03;3.27;;;;;;;;;;5067786;28;20195;-70
2022/05/07 07:23:27;;;;;;;5.90;3.30;;;;;;;;;;5072516;28;20234;-72
2022/05/07 07:25:56;;;;;;;4.30;2.97;;;;;;;;;;5066074;28;20695;-70
2022/05/07 07:28:24;;;;;;;4.77;3.40;;;;;;;;;;5074747;28;20242;-72
2022/05/07 07:30:52;;;;;;;6.50;3.90;;;;;;;;;;5077139;28;20206;-69
2022/05/07 07:33:21;;;;;;;9.70;4.03;;;;;;;;;;5077476;28;20225;-69
2022/05/07 07:35:49;;;;;;;7.70;3.70;;;;;;;;;;5059612;28;20258;-72
2022/05/07 07:38:24;;;;;;;3.63;3.33;;;;;;;;;;5070462;28;20202;-71
2022/05/07 07:40:52;;;;;;;4.77;3.83;;;;;;;;;;5071678;28;20207;-71
2022/05/07 07:43:20;;;;;;;6.20;3.63;;;;;;;;;;5057893;28;20242;-71
2022/05/07 07:48:35;;;;;;;9.03;4.00;;;;;;;;;;5072795;28;20210;-71
2022/05/07 07:51:03;;;;;;;4.23;3.80;;;;;;;;;;5077876;28;20209;-71
2022/05/07 07:53:31;;;;;;;5.77;4.03;;;;;;;;;;5077812;28;20240;-70
2022/05/07 07:55:59;;;;;;;8.83;4.73;;;;;;;;;;5078990;28;20265;-70
2022/05/07 07:58:27;;;;;;;5.77;3.93;;;;;;;;;;5077610;28;20634;-69
2022/05/07 08:00:55;;;;;;;5.13;4.03;;;;;;;;;;5073126;28;20293;-71
2022/05/07 08:03:23;;;;;;;5.70;4.00;;;;;;;;;;5068289;28;20230;-72
2022/05/07 08:05:54;;;;;;;6.47;4.80;;;;;;;;;;5069933;28;20222;-72
2022/05/07 08:13:54;;;;;;;6.70;4.27;;;;;;;;;;5057275;28;20578;-72
2022/05/07 08:16:22;;;;;;;5.27;3.90;;;;;;;;;;5057612;28;20250;-71
2022/05/07 08:18:51;;;;;;;5.33;3.83;;;;;;;;;;5061189;28;20235;-70
2022/05/07 08:21:23;;;;;;;5.37;4.30;;;;;;;;;;5077545;28;20737;-69
2022/05/07 08:23:51;;;;;;;3.83;3.40;;;;;;;;;;5057583;28;20260;-73
2022/05/07 08:26:19;;;;;;;6.07;4.77;;;;;;;;;;5058341;28;20227;-69
2022/05/07 08:28:47;;;;;;;6.00;3.37;;;;;;;;;;5067692;28;20587;-69
2022/05/07 08:31:15;;;;;;;6.53;3.77;;;;;;;;;;5066840;28;20206;-70
2022/05/07 08:33:43;;;;;;;4.70;3.67;;;;;;;;;;5068987;28;20195;-70
2022/05/07 08:36:12;;;;;;;3.80;3.40;;;;;;;;;;5068414;28;20313;-70
2022/05/07 08:38:42;;;;;;;7.03;3.20;;;;;;;;;;5068101;28;20194;-70
2022/05/07 08:41:11;;;;;;;7.80;3.40;;;;;;;;;;5070110;28;20638;-69
2022/05/07 08:43:39;;;;;;;3.43;3.00;;;;;;;;;;5067634;28;20199;-68
2022/05/07 08:46:10;;;;;;;4.03;3.10;;;;;;;;;;5069910;28;20222;-67
2022/05/07 08:48:39;;;;;;;4.03;3.17;;;;;;;;;;5066782;28;22406;-76
2022/05/07 08:51:08;;;;;;;10.63;3.73;;;;;;;;;;5067013;28;20220;-77
2022/05/07 08:53:36;;;;;;;4.93;3.33;;;;;;;;;;5067420;28;20289;-76
2022/05/07 08:56:07;;;;;;;4.00;3.60;;;;;;;;;;5070254;28;20263;-76
2022/05/07 08:58:34;;;;;;;3.27;2.93;;;;;;;;;;5070510;28;20221;-76
2022/05/07 09:01:03;;;;;;;3.93;2.60;;;;;;;;;;5068061;28;20202;-76
2022/05/07 09:03:40;;;;;;;5.57;2.93;;;;;;;;;;5072544;28;20628;-78
2022/05/07 09:06:18;;;;;;;4.13;2.77;;;;;;;;;;5072425;28;20249;-79
2022/05/07 09:08:47;;;;;;;5.23;3.10;;;;;;;;;;5072356;28;20214;-78
2022/05/07 09:11:17;;;;;;;3.57;3.20;;;;;;;;;;5072086;28;20237;-78
2022/05/07 09:13:46;;;;;;;4.50;2.93;;;;;;;;;;5070631;28;20233;-78
2022/05/07 09:16:15;;;;;;;6.60;3.67;;;;;;;;;;5072415;28;20247;-78
2022/05/07 09:18:47;;;;;;;7.00;3.30;;;;;;;;;;5070420;28;20237;-78
2022/05/07 09:21:19;;;;;;;3.90;3.17;;;;;;;;;;5069454;28;20209;-78
2022/05/07 09:23:48;;;;;;;4.30;2.83;;;;;;;;;;5072059;28;20205;-78
2022/05/07 09:26:28;;;;;;;6.03;2.87;;;;;;;;;;5074432;28;20222;-78
2022/05/07 09:28:56;;;;;;;7.00;3.50;;;;;;;;;;5071399;28;20226;-78
2022/05/07 09:31:26;;;;;;;6.80;3.27;;;;;;;;;;5072936;28;20259;-77
2022/05/07 09:33:55;;;;;;;6.10;3.10;;;;;;;;;;5071327;28;20689;-79
2022/05/07 09:36:24;;;;;;;4.23;2.93;;;;;;;;;;5074278;28;20224;-78
2022/05/07 09:38:59;;;;;;;3.53;3.23;;;;;;;;;;5070845;28;20256;-78
2022/05/07 09:41:29;;;;;;;3.13;2.90;;;;;;;;;;5071361;28;20230;-75
2022/05/07 09:43:59;;;;;;;3.80;3.50;;;;;;;;;;5073226;28;20203;-78
2022/05/07 09:46:30;;;;;;;2.77;2.57;;;;;;;;;;5071564;28;20222;-77
2022/05/07 09:49:01;;;;;;;3.07;2.80;;;;;;;;;;5071447;28;20226;-78
2022/05/07 09:51:30;;;;;;;3.90;2.93;;;;;;;;;;5067365;28;20199;-77
2022/05/07 09:59:45;;;;;;;4.03;2.60;;;;;;;;;;5017338;28;20200;-77
2022/05/07 10:02:20;;;;;;;3.87;3.30;;;;;;;;;;5057508;28;20234;-77
2022/05/07 10:05:02;;;;;;;4.90;2.80;;;;;;;;;;5068670;28;20658;-77
2022/05/07 10:07:39;;;;;;;6.13;2.60;;;;;;;;;;5073167;28;20275;-76
2022/05/07 10:10:17;;;;;;;4.73;2.70;;;;;;;;;;5071219;28;20201;-76
2022/05/07 10:12:47;;;;;;;2.93;2.60;;;;;;;;;;5071875;28;20381;-78
2022/05/07 10:15:16;;;;;;;3.23;2.93;;;;;;;;;;5073031;28;20237;-76
2022/05/07 10:17:48;;;;;;;4.27;2.67;;;;;;;;;;5071164;28;20222;-77
2022/05/07 10:20:23;;;;;;;3.43;2.70;;;;;;;;;;5074554;28;20569;-77
2022/05/07 10:22:56;;;;;;;5.50;3.13;;;;;;;;;;5069090;28;20202;-78
2022/05/07 10:25:24;;;;;;;4.60;3.00;;;;;;;;;;5072461;28;20601;-77
2022/05/07 10:27:54;;;;;;;3.00;2.70;;;;;;;;;;5073208;28;20282;-77
2022/05/07 10:30:23;;;;;;;3.40;2.83;;;;;;;;;;5072775;28;20241;-76
2022/05/07 10:32:58;;;;;;;3.20;2.90;;;;;;;;;;5074022;28;20263;-77
2022/05/07 10:35:39;;;;;;;10.27;2.83;;;;;;;;;;5069589;28;20225;-77
2022/05/07 10:38:11;;;;;;;5.00;3.03;;;;;;;;;;5070048;28;20226;-78
2022/05/07 10:40:49;;;;;;;6.17;3.63;;;;;;;;;;5070352;28;20229;-77
2022/05/07 10:43:34;;;;;;;4.17;2.80;;;;;;;;;;5067928;28;20206;-77
2022/05/07 10:46:04;;;;;;;2.93;2.63;;;;;;;;;;5070121;28;20223;-77
2022/05/07 10:48:42;;;;;;;3.30;2.60;;;;;;;;;;5069676;28;20218;-77
2022/05/07 10:51:17;;;;;;;5.23;2.73;;;;;;;;;;5067020;28;20293;-77
2022/05/07 10:53:45;;;;;;;4.53;2.50;;;;;;;;;;5070423;28;20209;-77
2022/05/07 10:56:14;;;;;;;3.93;2.83;;;;;;;;;;5070493;28;20740;-77
2022/05/07 10:58:47;;;;;;;2.63;2.40;;;;;;;;;;5068668;28;20199;-77
2022/05/07 11:01:17;;;;;;;6.23;3.20;;;;;;;;;;5071041;28;20203;-78
2022/05/07 11:03:45;;;;;;;4.70;2.53;;;;;;;;;;5071144;28;20229;-74
2022/05/07 11:06:13;;;;;;;2.77;2.40;;;;;;;;;;5065871;28;20230;-74
2022/05/07 11:08:49;;;;;;;3.87;2.70;;;;;;;;;;5066272;28;20293;-75
2022/05/07 11:11:17;;;;;;;2.73;2.30;;;;;;;;;;5061217;28;20207;-74
2022/05/07 11:13:48;;;;;;;2.33;2.10;;;;;;;;;;5061304;28;20674;-75
2022/05/07 11:16:17;;;;;;;2.30;2.13;;;;;;;;;;5058115;28;20268;-72
2022/05/07 11:18:49;;;;;;;4.23;2.10;;;;;;;;;;5058228;28;20211;-75
2022/05/07 11:21:17;;;;;;;5.50;2.10;;;;;;;;;;5061666;28;20625;-74
2022/05/07 11:23:45;;;;;;;2.30;2.10;;;;;;;;;;5078113;28;20206;-75
2022/05/07 11:26:14;;;;;;;5.17;2.63;;;;;;;;;;5071071;28;20736;-74
2022/05/07 11:28:43;;;;;;;3.43;2.30;;;;;;;;;;5062417;28;20260;-74
2022/05/07 11:31:15;;;;;;;3.73;2.23;;;;;;;;;;5077773;28;20642;-75
2022/05/07 11:33:43;;;;;;;3.13;2.47;;;;;;;;;;5063388;28;20207;-73
2022/05/07 11:36:11;;;;;;;5.20;2.83;;;;;;;;;;5058507;28;20309;-73
2022/05/07 11:38:39;;;;;;;4.47;2.00;;;;;;;;;;5074734;28;20241;-72
2022/05/07 11:41:11;;;;;;;2.50;1.77;;;;;;;;;;5059080;28;20203;-73
2022/05/07 11:46:26;;;;;;;2.23;1.97;;;;;;;;;;5077712;28;20634;-71
2022/05/07 11:49:05;;;;;;;2.87;2.57;;;;;;;;;;5078046;28;20286;-72
2022/05/07 11:51:33;;;;;;;2.43;2.03;;;;;;;;;;5077694;28;20233;-74
2022/05/07 11:54:08;;;;;;;4.33;2.90;;;;;;;;;;5078145;28;20270;-75
2022/05/07 11:56:45;;;;;;;2.40;2.20;;;;;;;;;;5069977;28;20645;-72
2022/05/07 11:59:14;;;;;;;3.47;3.17;;;;;;;;;;5067976;28;20252;-74
2022/05/07 12:01:48;;;;;;;4.87;3.93;;;;;;;;;;5067208;28;20633;-75
2022/05/07 12:04:17;;;;;;;2.80;2.60;;;;;;;;;;5067170;28;20273;-75
2022/05/07 12:06:54;;;;;;;2.27;2.07;;;;;;;;;;5074173;28;20595;-76
2022/05/07 12:09:22;;;;;;;3.17;2.37;;;;;;;;;;5077448;28;20265;-74
2022/05/07 12:11:51;;;;;;;4.93;2.03;;;;;;;;;;5077250;28;20252;-76
2022/05/07 12:14:19;;;;;;;5.87;2.97;;;;;;;;;;5073771;28;20202;-75
2022/05/07 12:19:37;;;;;;;6.07;2.00;;;;;;;;;;5030351;28;20248;-75
2022/05/07 12:30:21;;;;;;;3.60;2.27;;;;;;;;;;5035404;28;20355;-75
2022/05/07 12:32:54;;;;;;;2.93;2.10;;;;;;;;;;5076748;28;20198;-74
2022/05/07 12:35:22;;;;;;;2.63;2.43;;;;;;;;;;5071990;28;20230;-75
2022/05/07 12:37:50;;;;;;;4.33;2.37;;;;;;;;;;5069417;28;20223;-75
2022/05/07 12:40:21;;;;;;;4.87;2.23;;;;;;;;;;5066029;28;20201;-76
2022/05/07 12:42:49;;;;;;;2.33;2.13;;;;;;;;;;5068202;28;20222;-76
2022/05/07 12:45:17;;;;;;;2.93;2.13;;;;;;;;;;5067132;28;20657;-76
2022/05/07 12:47:45;;;;;;;3.23;1.90;;;;;;;;;;5069675;28;20199;-75
2022/05/07 12:50:14;;;;;;;3.50;2.07;;;;;;;;;;5070020;28;20317;-74
2022/05/07 12:52:42;;;;;;;2.33;2.17;;;;;;;;;;5063187;28;20198;-76
2022/05/07 12:55:11;;;;;;;6.00;2.20;;;;;;;;;;5069676;28;20233;-75
2022/05/07 12:57:39;;;;;;;5.43;1.90;;;;;;;;;;5070548;28;20241;-76
2022/05/07 13:00:08;;;;;;;2.37;2.17;;;;;;;;;;5066673;28;20195;-76
2022/05/07 13:02:40;;;;;;;4.80;2.17;;;;;;;;;;5070306;28;20313;-76
2022/05/07 13:05:09;;;;;;;2.20;1.70;;;;;;;;;;5068167;28;20210;-75
2022/05/07 13:07:39;;;;;;;2.50;1.80;;;;;;;;;;5070335;28;20685;-75
2022/05/07 13:10:08;;;;;;;1.87;1.77;;;;;;;;;;5067546;28;20697;-75
2022/05/07 13:12:39;;;;;;;2.00;1.90;;;;;;;;;;5069182;28;20562;-74
2022/05/07 13:15:08;;;;;;;3.83;2.07;;;;;;;;;;5059858;28;20214;-74
2022/05/07 13:17:36;;;;;;;2.27;2.07;;;;;;;;;;5056831;28;20203;-74
2022/05/07 13:20:04;;;;;;;1.77;1.67;;;;;;;;;;5056849;28;20214;-76
2022/05/07 13:22:33;;;;;;;3.53;1.90;;;;;;;;;;5056804;28;20211;-75
2022/05/07 13:25:04;;;;;;;2.17;2.07;;;;;;;;;;5064906;28;20233;-76
2022/05/07 13:27:33;;;;;;;3.30;2.00;;;;;;;;;;5066637;28;20210;-75
2022/05/07 13:30:01;;;;;;;1.97;1.77;;;;;;;;;;5072014;28;20313;-73
2022/05/07 13:32:30;;;;;;;3.43;1.80;;;;;;;;;;5070218;28;20256;-76
2022/05/07 13:34:59;;;;;;;1.73;1.63;;;;;;;;;;5076970;28;20230;-76
2022/05/07 13:37:27;;;;;;;3.87;2.00;;;;;;;;;;5072060;28;20205;-76
2022/05/07 13:39:57;;;;;;;3.00;1.90;;;;;;;;;;5067505;28;20194;-77
2022/05/07 13:42:27;;;;;;;7.67;2.07;;;;;;;;;;5068529;28;20570;-75
2022/05/07 13:44:55;;;;;;;3.13;1.67;;;;;;;;;;5067604;28;20199;-74
2022/05/07 13:47:23;;;;;;;2.40;2.20;;;;;;;;;;5065913;28;20313;-73
2022/05/07 13:49:51;;;;;;;2.90;1.97;;;;;;;;;;5070877;28;20285;-72
2022/05/07 13:52:19;;;;;;;2.33;1.77;;;;;;;;;;5072534;28;20294;-74
2022/05/07 13:54:47;;;;;;;2.57;1.90;;;;;;;;;;5067742;28;20611;-73
2022/05/07 13:57:16;;;;;;;2.23;2.03;;;;;;;;;;5073440;28;20254;-73
2022/05/07 13:59:46;;;;;;;1.80;1.70;;;;;;;;;;5071721;28;20227;-75
2022/05/07 14:02:14;;;;;;;2.87;1.80;;;;;;;;;;5071486;28;20263;-74
2022/05/07 14:04:42;;;;;;;2.13;2.03;;;;;;;;;;5071446;28;20235;-75
2022/05/07 14:07:14;;;;;;;4.83;2.03;;;;;;;;;;5072287;28;20231;-74
2022/05/07 14:09:47;;;;;;;2.30;1.70;;;;;;;;;;5068622;28;20261;-74
2022/05/07 14:12:16;;;;;;;1.97;1.70;;;;;;;;;;5071146;28;20264;-74
2022/05/07 14:14:46;;;;;;;2.40;1.60;;;;;;;;;;5071158;28;20223;-71
2022/05/07 14:17:15;;;;;;;1.67;1.57;;;;;;;;;;5072180;28;20315;-74
2022/05/07 14:19:43;;;;;;;3.73;1.50;;;;;;;;;;5070685;28;20309;-79
2022/05/07 14:22:11;;;;;;;1.73;1.63;;;;;;;;;;5072093;28;20234;-75
2022/05/07 14:24:39;;;;;;;2.37;1.60;;;;;;;;;;5073443;28;20230;-78
2022/05/07 14:27:08;;;;;;;4.30;1.90;;;;;;;;;;5079517;28;20267;-76
2022/05/07 14:29:36;;;;;;;2.40;1.73;;;;;;;;;;5079283;28;20238;-80
2022/05/07 14:32:06;;;;;;;3.37;1.93;;;;;;;;;;5068884;28;20659;-79
2022/05/07 14:34:34;;;;;;;2.03;1.77;;;;;;;;;;5072936;28;20257;-79
2022/05/07 14:37:02;;;;;;;3.60;2.43;;;;;;;;;;5059023;28;20254;-80
2022/05/07 14:39:31;;;;;;;5.57;2.03;;;;;;;;;;5059091;28;20214;-79
2022/05/07 14:41:59;;;;;;;2.73;2.10;;;;;;;;;;5058841;28;20241;-78
2022/05/07 14:44:27;;;;;;;3.77;2.40;;;;;;;;;;5061728;28;20230;-79
2022/05/07 14:46:55;;;;;;;3.60;2.10;;;;;;;;;;5059073;28;20258;-79
2022/05/07 14:49:25;;;;;;;3.33;2.40;;;;;;;;;;5073300;28;20237;-80
2022/05/07 14:51:53;;;;;;;2.80;1.70;;;;;;;;;;5078201;28;20258;-82
2022/05/07 14:54:41;;;;;;;2.70;2.33;;;;;;;;;;5078897;28;20284;-81
2022/05/07 14:57:09;;;;;;;1.90;1.80;;;;;;;;;;5078637;28;20230;-80
2022/05/07 14:59:37;;;;;;;3.27;1.87;;;;;;;;;;5078464;28;20215;-79
2022/05/07 15:02:05;;;;;;;2.43;2.23;;;;;;;;;;5059504;28;20202;-81
2022/05/07 15:04:35;;;;;;;1.87;1.73;;;;;;;;;;5059224;28;20286;-81
2022/05/07 15:07:07;;;;;;;2.10;1.77;;;;;;;;;;5058983;28;20233;-80
2022/05/07 15:12:21;;;;;;;3.70;2.33;;;;;;;;;;5068248;28;20225;-81
2022/05/07 15:14:49;;;;;;;2.27;2.00;;;;;;;;;;5058346;28;20211;-79
2022/05/07 15:17:17;;;;;;;3.23;2.13;;;;;;;;;;5070305;28;20265;-78
2022/05/07 15:19:47;;;;;;;2.63;2.43;;;;;;;;;;5063415;28;20257;-73
2022/05/07 15:22:15;;;;;;;2.03;1.83;;;;;;;;;;5058925;28;20242;-75
2022/05/07 15:24:43;;;;;;;2.30;2.10;;;;;;;;;;5058856;28;20210;-75
2022/05/07 15:27:11;;;;;;;2.33;2.13;;;;;;;;;;5058918;28;20267;-75
2022/05/07 15:29:39;;;;;;;1.60;1.50;;;;;;;;;;5058652;28;20242;-75
2022/05/07 15:37:39;;;;;;;2.43;1.60;;;;;;;;;;5057718;28;20667;-75
2022/05/07 15:40:07;;;;;;;3.37;2.20;;;;;;;;;;5057950;28;20221;-75
2022/05/07 15:42:36;;;;;;;2.90;2.07;;;;;;;;;;5057836;28;20290;-75
2022/05/07 15:45:07;;;;;;;3.03;2.10;;;;;;;;;;5057824;28;20222;-74